sensor_id;sensor_type;location;lat;lon;timestamp;noise_LAeq;noise_LA_min;noise_LA_max;noise_LA01;noise_LA95
70077;Laerm;57448;51.490;5.436;2022-08-19T00:00:04;37.82;35.51;39.50;;
70077;Laerm;57448;51.490;5.436;2022-08-19T00:00:10;36.66;34.76;38.38;;
70077;Laerm;57448;51.490;5.436;2022-08-19T00:00:15;37.23;35.33;39.91;;
70077;Laerm;57448;51.490;5.436;2022-08-19T00:00:21;37.19;35.65;38.72;;
70077;Laerm;57448;51.490;5.436;2022-08-19T00:00:26;37.16;35.48;38.42;;
70077;Laerm;57448;51.490;5.436;2022-08-19T00:00:32;39.16;36.49;47.68;;
70077;Laerm;57448;51.490;5.436;2022-08-19T00:00:37;38.88;37.29;40.55;;
70077;Laerm;57448;51.490;5.436;2022-08-19T00:00:43;40.95;37.52;51.05;;
70077;Laerm;57448;51.490;5.436;2022-08-19T00:00:48;39.98;36.80;43.22;;
70077;Laerm;57448;51.490;5.436;2022-08-19T00:00:55;38.06;36.40;39.95;;
70077;Laerm;57448;51.490;5.436;2022-08-19T00:01:00;39.78;37.58;42.18;;
70077;Laerm;57448;51.490;5.436;2022-08-19T00:01:05;38.71;36.79;42.31;;
70077;Laerm;57448;51.490;5.436;2022-08-19T00:01:11;39.30;37.11;41.80;;
70077;Laerm;57448;51.490;5.436;2022-08-19T00:01:16;37.52;35.44;39.11;;
70077;Laerm;57448;51.490;5.436;2022-08-19T00:01:23;37.27;35.32;39.31;;
70077;Laerm;57448;51.490;5.436;2022-08-19T00:01:29;40.03;36.18;51.32;;
70077;Laerm;57448;51.490;5.436;2022-08-19T00:01:35;40.24;36.65;47.73;;
70077;Laerm;57448;51.490;5.436;2022-08-19T00:01:42;37.86;35.96;39.39;;
70077;Laerm;57448;51.490;5.436;2022-08-19T00:01:48;37.23;35.54;40.34;;
70077;Laerm;57448;51.490;5.436;2022-08-19T00:01:54;37.13;35.28;38.94;;
70077;Laerm;57448;51.490;5.436;2022-08-19T00:02:00;37.75;35.38;39.91;;
70077;Laerm;57448;51.490;5.436;2022-08-19T00:02:05;35.93;34.24;38.50;;
70077;Laerm;57448;51.490;5.436;2022-08-19T00:02:11;37.34;34.66;40.71;;
70077;Laerm;57448;51.490;5.436;2022-08-19T00:02:16;37.26;35.11;40.07;;
70077;Laerm;57448;51.490;5.436;2022-08-19T00:02:22;37.99;36.31;39.74;;
70077;Laerm;57448;51.490;5.436;2022-08-19T00:02:27;37.39;35.44;40.59;;
70077;Laerm;57448;51.490;5.436;2022-08-19T00:02:32;38.28;36.07;40.46;;
70077;Laerm;57448;51.490;5.436;2022-08-19T00:02:38;38.42;35.93;40.36;;
70077;Laerm;57448;51.490;5.436;2022-08-19T00:02:43;38.99;36.13;42.93;;
70077;Laerm;57448;51.490;5.436;2022-08-19T00:02:50;38.40;35.50;42.11;;
70077;Laerm;57448;51.490;5.436;2022-08-19T00:02:56;36.99;34.96;38.79;;
70077;Laerm;57448;51.490;5.436;2022-08-19T00:03:02;38.59;36.50;40.13;;
70077;Laerm;57448;51.490;5.436;2022-08-19T00:03:07;42.65;37.66;56.26;;
70077;Laerm;57448;51.490;5.436;2022-08-19T00:03:13;39.04;36.41;41.65;;
70077;Laerm;57448;51.490;5.436;2022-08-19T00:03:18;37.84;36.33;40.48;;
70077;Laerm;57448;51.490;5.436;2022-08-19T00:03:23;38.41;36.41;40.33;;
70077;Laerm;57448;51.490;5.436;2022-08-19T00:03:29;37.31;35.02;41.20;;
70077;Laerm;57448;51.490;5.436;2022-08-19T00:03:34;39.12;36.73;41.19;;
70077;Laerm;57448;51.490;5.436;2022-08-19T00:03:40;38.46;37.03;40.94;;
70077;Laerm;57448;51.490;5.436;2022-08-19T00:03:45;37.58;35.79;39.58;;
70077;Laerm;57448;51.490;5.436;2022-08-19T00:03:51;37.62;36.07;40.29;;
70077;Laerm;57448;51.490;5.436;2022-08-19T00:03:58;39.78;36.30;47.28;;
70077;Laerm;57448;51.490;5.436;2022-08-19T00:04:05;40.20;37.21;45.10;;
70077;Laerm;57448;51.490;5.436;2022-08-19T00:04:12;38.61;35.61;41.14;;
70077;Laerm;57448;51.490;5.436;2022-08-19T00:04:19;37.50;35.21;39.72;;
70077;Laerm;57448;51.490;5.436;2022-08-19T00:04:25;40.09;37.49;42.26;;
70077;Laerm;57448;51.490;5.436;2022-08-19T00:04:32;39.47;37.58;41.62;;
70077;Laerm;57448;51.490;5.436;2022-08-19T00:04:39;37.78;36.10;39.90;;
70077;Laerm;57448;51.490;5.436;2022-08-19T00:04:45;37.62;36.11;39.89;;
70077;Laerm;57448;51.490;5.436;2022-08-19T00:04:52;37.65;34.73;40.53;;
70077;Laerm;57448;51.490;5.436;2022-08-19T00:04:58;37.80;35.49;48.02;;
70077;Laerm;57448;51.490;5.436;2022-08-19T00:05:04;36.71;34.07;39.22;;
70077;Laerm;57448;51.490;5.436;2022-08-19T00:05:10;38.71;36.25;41.77;;
70077;Laerm;57448;51.490;5.436;2022-08-19T00:05:16;36.66;34.73;38.68;;
70077;Laerm;57448;51.490;5.436;2022-08-19T00:05:22;36.35;33.99;38.51;;
70077;Laerm;57448;51.490;5.436;2022-08-19T00:05:27;36.66;34.78;39.82;;
70077;Laerm;57448;51.490;5.436;2022-08-19T00:05:33;37.44;35.01;39.75;;
70077;Laerm;57448;51.490;5.436;2022-08-19T00:05:38;37.25;35.65;38.63;;
70077;Laerm;57448;51.490;5.436;2022-08-19T00:05:45;37.88;35.99;41.19;;
70077;Laerm;57448;51.490;5.436;2022-08-19T00:05:50;38.75;36.34;41.61;;
70077;Laerm;57448;51.490;5.436;2022-08-19T00:05:56;39.09;36.99;41.61;;
70077;Laerm;57448;51.490;5.436;2022-08-19T00:06:01;39.07;36.96;41.91;;
70077;Laerm;57448;51.490;5.436;2022-08-19T00:06:07;37.72;35.70;40.77;;
70077;Laerm;57448;51.490;5.436;2022-08-19T00:06:13;38.71;36.83;40.58;;
70077;Laerm;57448;51.490;5.436;2022-08-19T00:06:18;38.88;36.13;41.62;;
70077;Laerm;57448;51.490;5.436;2022-08-19T00:06:24;38.62;36.31;40.39;;
70077;Laerm;57448;51.490;5.436;2022-08-19T00:06:29;39.42;37.94;41.40;;
70077;Laerm;57448;51.490;5.436;2022-08-19T00:06:35;39.84;37.59;42.14;;
70077;Laerm;57448;51.490;5.436;2022-08-19T00:06:42;40.16;38.12;42.07;;
70077;Laerm;57448;51.490;5.436;2022-08-19T00:06:48;39.59;36.79;41.81;;
70077;Laerm;57448;51.490;5.436;2022-08-19T00:06:53;40.18;38.19;42.06;;
70077;Laerm;57448;51.490;5.436;2022-08-19T00:06:58;40.10;37.30;43.65;;
70077;Laerm;57448;51.490;5.436;2022-08-19T00:07:04;40.36;37.39;42.50;;
70077;Laerm;57448;51.490;5.436;2022-08-19T00:07:11;39.55;37.31;41.34;;
70077;Laerm;57448;51.490;5.436;2022-08-19T00:07:16;40.42;36.67;42.57;;
70077;Laerm;57448;51.490;5.436;2022-08-19T00:07:22;39.52;36.94;44.90;;
70077;Laerm;57448;51.490;5.436;2022-08-19T00:07:27;39.63;37.87;41.93;;
70077;Laerm;57448;51.490;5.436;2022-08-19T00:07:32;38.46;36.02;40.73;;
70077;Laerm;57448;51.490;5.436;2022-08-19T00:07:38;37.47;35.79;39.37;;
70077;Laerm;57448;51.490;5.436;2022-08-19T00:07:43;37.98;36.06;39.85;;
70077;Laerm;57448;51.490;5.436;2022-08-19T00:07:49;38.55;36.57;40.41;;
70077;Laerm;57448;51.490;5.436;2022-08-19T00:07:55;38.36;36.66;40.20;;
70077;Laerm;57448;51.490;5.436;2022-08-19T00:08:00;38.03;36.30;41.27;;
70077;Laerm;57448;51.490;5.436;2022-08-19T00:08:06;37.91;36.21;40.10;;
70077;Laerm;57448;51.490;5.436;2022-08-19T00:08:11;38.75;35.19;41.47;;
70077;Laerm;57448;51.490;5.436;2022-08-19T00:08:16;41.28;37.98;45.73;;
70077;Laerm;57448;51.490;5.436;2022-08-19T00:08:22;40.93;37.48;44.94;;
70077;Laerm;57448;51.490;5.436;2022-08-19T00:08:27;37.22;35.04;39.21;;
70077;Laerm;57448;51.490;5.436;2022-08-19T00:08:33;38.42;36.07;41.06;;
70077;Laerm;57448;51.490;5.436;2022-08-19T00:08:39;36.16;34.10;38.42;;
70077;Laerm;57448;51.490;5.436;2022-08-19T00:08:45;36.51;35.00;38.64;;
70077;Laerm;57448;51.490;5.436;2022-08-19T00:08:50;36.45;34.92;37.57;;
70077;Laerm;57448;51.490;5.436;2022-08-19T00:08:57;35.36;33.99;37.06;;
70077;Laerm;57448;51.490;5.436;2022-08-19T00:09:02;35.80;33.92;37.83;;
70077;Laerm;57448;51.490;5.436;2022-08-19T00:09:09;37.15;34.88;39.18;;
70077;Laerm;57448;51.490;5.436;2022-08-19T00:09:17;38.63;35.91;49.45;;
70077;Laerm;57448;51.490;5.436;2022-08-19T00:09:24;36.92;34.91;38.68;;
70077;Laerm;57448;51.490;5.436;2022-08-19T00:09:29;36.64;35.04;39.02;;
70077;Laerm;57448;51.490;5.436;2022-08-19T00:09:35;37.18;34.95;39.32;;
70077;Laerm;57448;51.490;5.436;2022-08-19T00:09:40;35.84;34.27;37.50;;
70077;Laerm;57448;51.490;5.436;2022-08-19T00:09:45;36.09;34.26;37.53;;
70077;Laerm;57448;51.490;5.436;2022-08-19T00:09:51;36.97;35.41;38.96;;
70077;Laerm;57448;51.490;5.436;2022-08-19T00:09:57;39.60;35.54;44.37;;
70077;Laerm;57448;51.490;5.436;2022-08-19T00:10:02;41.08;39.17;43.38;;
70077;Laerm;57448;51.490;5.436;2022-08-19T00:10:09;39.50;37.09;41.69;;
70077;Laerm;57448;51.490;5.436;2022-08-19T00:10:14;39.00;35.78;40.95;;
70077;Laerm;57448;51.490;5.436;2022-08-19T00:10:20;38.62;36.39;40.33;;
70077;Laerm;57448;51.490;5.436;2022-08-19T00:10:26;39.03;37.33;40.88;;
70077;Laerm;57448;51.490;5.436;2022-08-19T00:10:31;38.26;36.44;40.14;;
70077;Laerm;57448;51.490;5.436;2022-08-19T00:10:36;37.32;35.60;42.07;;
70077;Laerm;57448;51.490;5.436;2022-08-19T00:10:42;37.06;35.00;39.05;;
70077;Laerm;57448;51.490;5.436;2022-08-19T00:10:47;36.58;35.08;38.43;;
70077;Laerm;57448;51.490;5.436;2022-08-19T00:10:52;36.93;35.01;38.52;;
70077;Laerm;57448;51.490;5.436;2022-08-19T00:10:58;37.54;35.80;39.04;;
70077;Laerm;57448;51.490;5.436;2022-08-19T00:11:03;37.76;35.68;41.06;;
70077;Laerm;57448;51.490;5.436;2022-08-19T00:11:09;38.99;37.33;40.78;;
70077;Laerm;57448;51.490;5.436;2022-08-19T00:11:14;39.01;36.95;40.86;;
70077;Laerm;57448;51.490;5.436;2022-08-19T00:11:20;38.46;36.70;40.52;;
70077;Laerm;57448;51.490;5.436;2022-08-19T00:11:26;39.09;37.40;41.27;;
70077;Laerm;57448;51.490;5.436;2022-08-19T00:11:32;40.37;37.57;42.61;;
70077;Laerm;57448;51.490;5.436;2022-08-19T00:11:42;41.43;38.81;49.16;;
70077;Laerm;57448;51.490;5.436;2022-08-19T00:11:48;42.26;39.74;48.28;;
70077;Laerm;57448;51.490;5.436;2022-08-19T00:11:55;40.80;38.64;43.13;;
70077;Laerm;57448;51.490;5.436;2022-08-19T00:12:01;38.65;36.40;45.47;;
70077;Laerm;57448;51.490;5.436;2022-08-19T00:12:06;39.52;37.00;42.65;;
70077;Laerm;57448;51.490;5.436;2022-08-19T00:12:12;40.34;37.46;44.09;;
70077;Laerm;57448;51.490;5.436;2022-08-19T00:12:17;40.61;38.27;42.38;;
70077;Laerm;57448;51.490;5.436;2022-08-19T00:12:23;40.73;38.30;43.07;;
70077;Laerm;57448;51.490;5.436;2022-08-19T00:12:28;39.03;36.34;41.65;;
70077;Laerm;57448;51.490;5.436;2022-08-19T00:12:34;39.14;36.64;41.62;;
70077;Laerm;57448;51.490;5.436;2022-08-19T00:12:40;38.16;36.18;40.87;;
70077;Laerm;57448;51.490;5.436;2022-08-19T00:12:45;38.28;36.31;45.08;;
70077;Laerm;57448;51.490;5.436;2022-08-19T00:12:51;38.27;36.34;44.21;;
70077;Laerm;57448;51.490;5.436;2022-08-19T00:12:56;37.34;34.93;40.04;;
70077;Laerm;57448;51.490;5.436;2022-08-19T00:13:02;37.93;34.91;40.82;;
70077;Laerm;57448;51.490;5.436;2022-08-19T00:13:09;37.55;34.36;39.87;;
70077;Laerm;57448;51.490;5.436;2022-08-19T00:13:15;37.74;34.42;42.28;;
70077;Laerm;57448;51.490;5.436;2022-08-19T00:13:20;38.65;36.34;42.16;;
70077;Laerm;57448;51.490;5.436;2022-08-19T00:13:26;39.18;35.86;42.49;;
70077;Laerm;57448;51.490;5.436;2022-08-19T00:13:33;39.22;36.88;40.88;;
70077;Laerm;57448;51.490;5.436;2022-08-19T00:13:38;39.16;36.76;41.28;;
70077;Laerm;57448;51.490;5.436;2022-08-19T00:13:44;40.05;36.64;49.79;;
70077;Laerm;57448;51.490;5.436;2022-08-19T00:13:51;38.28;36.56;40.10;;
70077;Laerm;57448;51.490;5.436;2022-08-19T00:13:56;39.01;36.76;41.55;;
70077;Laerm;57448;51.490;5.436;2022-08-19T00:14:02;39.04;37.35;41.17;;
70077;Laerm;57448;51.490;5.436;2022-08-19T00:14:08;39.38;36.08;45.12;;
70077;Laerm;57448;51.490;5.436;2022-08-19T00:14:15;37.23;35.45;43.82;;
70077;Laerm;57448;51.490;5.436;2022-08-19T00:14:21;38.73;35.80;45.24;;
70077;Laerm;57448;51.490;5.436;2022-08-19T00:14:27;37.01;34.92;39.24;;
70077;Laerm;57448;51.490;5.436;2022-08-19T00:14:36;36.03;33.98;37.91;;
70077;Laerm;57448;51.490;5.436;2022-08-19T00:14:43;36.18;34.56;37.71;;
70077;Laerm;57448;51.490;5.436;2022-08-19T00:14:48;36.59;34.60;38.80;;
70077;Laerm;57448;51.490;5.436;2022-08-19T00:14:53;35.51;34.34;37.04;;
70077;Laerm;57448;51.490;5.436;2022-08-19T00:14:59;37.57;34.96;39.97;;
70077;Laerm;57448;51.490;5.436;2022-08-19T00:15:04;38.99;35.79;43.06;;
70077;Laerm;57448;51.490;5.436;2022-08-19T00:15:12;37.31;34.91;39.31;;
70077;Laerm;57448;51.490;5.436;2022-08-19T00:15:19;38.62;35.21;41.24;;
70077;Laerm;57448;51.490;5.436;2022-08-19T00:15:25;38.43;35.62;41.35;;
70077;Laerm;57448;51.490;5.436;2022-08-19T00:15:31;38.19;36.22;40.47;;
70077;Laerm;57448;51.490;5.436;2022-08-19T00:15:36;39.15;37.37;42.99;;
70077;Laerm;57448;51.490;5.436;2022-08-19T00:15:42;39.50;36.59;42.17;;
70077;Laerm;57448;51.490;5.436;2022-08-19T00:15:49;38.64;36.32;41.47;;
70077;Laerm;57448;51.490;5.436;2022-08-19T00:15:55;37.64;35.64;40.10;;
70077;Laerm;57448;51.490;5.436;2022-08-19T00:16:00;39.23;37.21;41.43;;
70077;Laerm;57448;51.490;5.436;2022-08-19T00:16:06;38.36;36.25;40.41;;
70077;Laerm;57448;51.490;5.436;2022-08-19T00:16:13;37.91;35.53;39.87;;
70077;Laerm;57448;51.490;5.436;2022-08-19T00:16:18;37.85;35.51;40.74;;
70077;Laerm;57448;51.490;5.436;2022-08-19T00:16:24;38.19;36.21;41.36;;
70077;Laerm;57448;51.490;5.436;2022-08-19T00:16:30;40.56;37.15;43.35;;
70077;Laerm;57448;51.490;5.436;2022-08-19T00:16:35;38.30;36.12;40.51;;
70077;Laerm;57448;51.490;5.436;2022-08-19T00:16:42;39.43;36.67;42.05;;
70077;Laerm;57448;51.490;5.436;2022-08-19T00:16:48;40.28;36.99;43.48;;
70077;Laerm;57448;51.490;5.436;2022-08-19T00:16:53;37.23;34.76;39.22;;
70077;Laerm;57448;51.490;5.436;2022-08-19T00:16:59;37.91;35.26;39.71;;
70077;Laerm;57448;51.490;5.436;2022-08-19T00:17:05;37.83;35.82;40.03;;
70077;Laerm;57448;51.490;5.436;2022-08-19T00:17:11;37.75;35.52;40.13;;
70077;Laerm;57448;51.490;5.436;2022-08-19T00:17:17;40.04;36.14;42.67;;
70077;Laerm;57448;51.490;5.436;2022-08-19T00:17:23;38.48;35.70;40.40;;
70077;Laerm;57448;51.490;5.436;2022-08-19T00:17:28;39.50;36.95;41.64;;
70077;Laerm;57448;51.490;5.436;2022-08-19T00:17:33;38.08;36.76;39.80;;
70077;Laerm;57448;51.490;5.436;2022-08-19T00:17:41;39.76;36.70;48.35;;
70077;Laerm;57448;51.490;5.436;2022-08-19T00:17:47;40.05;37.95;42.99;;
70077;Laerm;57448;51.490;5.436;2022-08-19T00:17:52;40.34;37.42;42.95;;
70077;Laerm;57448;51.490;5.436;2022-08-19T00:17:59;37.69;36.16;40.52;;
70077;Laerm;57448;51.490;5.436;2022-08-19T00:18:04;38.82;36.92;40.23;;
70077;Laerm;57448;51.490;5.436;2022-08-19T00:18:10;39.61;37.72;42.14;;
70077;Laerm;57448;51.490;5.436;2022-08-19T00:18:15;40.91;38.57;43.09;;
70077;Laerm;57448;51.490;5.436;2022-08-19T00:18:20;39.24;36.33;41.28;;
70077;Laerm;57448;51.490;5.436;2022-08-19T00:18:26;37.68;35.48;39.00;;
70077;Laerm;57448;51.490;5.436;2022-08-19T00:18:31;38.84;36.75;41.40;;
70077;Laerm;57448;51.490;5.436;2022-08-19T00:18:36;39.74;37.49;41.70;;
70077;Laerm;57448;51.490;5.436;2022-08-19T00:18:42;39.14;36.90;41.90;;
70077;Laerm;57448;51.490;5.436;2022-08-19T00:18:47;38.32;36.52;40.48;;
70077;Laerm;57448;51.490;5.436;2022-08-19T00:18:53;38.42;36.67;41.05;;
70077;Laerm;57448;51.490;5.436;2022-08-19T00:19:01;37.89;35.78;40.58;;
70077;Laerm;57448;51.490;5.436;2022-08-19T00:19:07;37.95;35.62;40.07;;
70077;Laerm;57448;51.490;5.436;2022-08-19T00:19:13;39.06;36.26;41.23;;
70077;Laerm;57448;51.490;5.436;2022-08-19T00:19:19;37.98;35.85;40.29;;
70077;Laerm;57448;51.490;5.436;2022-08-19T00:19:24;38.24;35.98;40.19;;
70077;Laerm;57448;51.490;5.436;2022-08-19T00:19:30;39.65;36.67;42.37;;
70077;Laerm;57448;51.490;5.436;2022-08-19T00:19:36;39.41;37.92;40.91;;
70077;Laerm;57448;51.490;5.436;2022-08-19T00:19:41;40.17;36.95;43.95;;
70077;Laerm;57448;51.490;5.436;2022-08-19T00:19:47;39.65;36.57;45.94;;
70077;Laerm;57448;51.490;5.436;2022-08-19T00:19:52;37.51;35.26;43.90;;
70077;Laerm;57448;51.490;5.436;2022-08-19T00:19:57;37.10;35.78;38.65;;
70077;Laerm;57448;51.490;5.436;2022-08-19T00:20:03;38.14;35.51;39.92;;
70077;Laerm;57448;51.490;5.436;2022-08-19T00:20:09;38.10;35.68;40.59;;
70077;Laerm;57448;51.490;5.436;2022-08-19T00:20:19;38.63;36.23;42.68;;
70077;Laerm;57448;51.490;5.436;2022-08-19T00:20:25;36.93;35.10;39.17;;
70077;Laerm;57448;51.490;5.436;2022-08-19T00:20:32;37.44;35.69;39.65;;
70077;Laerm;57448;51.490;5.436;2022-08-19T00:20:37;36.95;35.14;39.55;;
70077;Laerm;57448;51.490;5.436;2022-08-19T00:20:45;36.54;33.75;38.77;;
70077;Laerm;57448;51.490;5.436;2022-08-19T00:20:50;37.72;35.13;40.31;;
70077;Laerm;57448;51.490;5.436;2022-08-19T00:20:56;37.21;34.71;40.83;;
70077;Laerm;57448;51.490;5.436;2022-08-19T00:21:01;36.85;34.68;43.49;;
70077;Laerm;57448;51.490;5.436;2022-08-19T00:21:07;38.36;36.14;46.78;;
70077;Laerm;57448;51.490;5.436;2022-08-19T00:21:13;38.48;35.58;44.15;;
70077;Laerm;57448;51.490;5.436;2022-08-19T00:21:19;40.19;36.92;42.98;;
70077;Laerm;57448;51.490;5.436;2022-08-19T00:21:25;38.96;36.25;42.47;;
70077;Laerm;57448;51.490;5.436;2022-08-19T00:21:31;38.23;35.86;42.41;;
70077;Laerm;57448;51.490;5.436;2022-08-19T00:21:37;37.73;36.01;39.72;;
70077;Laerm;57448;51.490;5.436;2022-08-19T00:21:44;38.92;36.09;42.06;;
70077;Laerm;57448;51.490;5.436;2022-08-19T00:21:49;38.26;35.45;41.33;;
70077;Laerm;57448;51.490;5.436;2022-08-19T00:21:55;39.45;36.09;41.98;;
70077;Laerm;57448;51.490;5.436;2022-08-19T00:22:01;40.20;37.25;43.50;;
70077;Laerm;57448;51.490;5.436;2022-08-19T00:22:07;40.54;37.79;43.08;;
70077;Laerm;57448;51.490;5.436;2022-08-19T00:22:13;39.89;37.66;41.82;;
70077;Laerm;57448;51.490;5.436;2022-08-19T00:22:19;39.62;36.91;42.87;;
70077;Laerm;57448;51.490;5.436;2022-08-19T00:22:25;36.68;34.36;38.66;;
70077;Laerm;57448;51.490;5.436;2022-08-19T00:22:33;38.69;35.76;42.47;;
70077;Laerm;57448;51.490;5.436;2022-08-19T00:22:38;38.83;36.43;41.55;;
70077;Laerm;57448;51.490;5.436;2022-08-19T00:22:46;37.05;34.29;39.62;;
70077;Laerm;57448;51.490;5.436;2022-08-19T00:22:52;36.66;34.93;38.52;;
70077;Laerm;57448;51.490;5.436;2022-08-19T00:22:59;39.44;35.94;45.46;;
70077;Laerm;57448;51.490;5.436;2022-08-19T00:23:06;40.02;37.68;42.66;;
70077;Laerm;57448;51.490;5.436;2022-08-19T00:23:11;40.44;37.70;44.31;;
70077;Laerm;57448;51.490;5.436;2022-08-19T00:23:16;39.30;36.58;42.91;;
70077;Laerm;57448;51.490;5.436;2022-08-19T00:23:22;41.22;38.46;45.06;;
70077;Laerm;57448;51.490;5.436;2022-08-19T00:23:27;39.09;36.85;42.03;;
70077;Laerm;57448;51.490;5.436;2022-08-19T00:23:33;40.52;37.26;43.43;;
70077;Laerm;57448;51.490;5.436;2022-08-19T00:23:39;38.71;35.71;45.68;;
70077;Laerm;57448;51.490;5.436;2022-08-19T00:23:45;37.09;35.41;39.78;;
70077;Laerm;57448;51.490;5.436;2022-08-19T00:23:51;39.16;37.15;43.10;;
70077;Laerm;57448;51.490;5.436;2022-08-19T00:23:56;38.45;36.55;40.19;;
70077;Laerm;57448;51.490;5.436;2022-08-19T00:24:03;38.38;36.21;40.46;;
70077;Laerm;57448;51.490;5.436;2022-08-19T00:24:09;37.26;35.15;41.31;;
70077;Laerm;57448;51.490;5.436;2022-08-19T00:24:15;37.58;34.72;40.59;;
70077;Laerm;57448;51.490;5.436;2022-08-19T00:24:20;37.83;35.15;41.34;;
70077;Laerm;57448;51.490;5.436;2022-08-19T00:24:26;37.95;36.00;40.30;;
70077;Laerm;57448;51.490;5.436;2022-08-19T00:24:33;39.07;36.37;43.69;;
70077;Laerm;57448;51.490;5.436;2022-08-19T00:24:40;36.83;35.37;38.63;;
70077;Laerm;57448;51.490;5.436;2022-08-19T00:24:46;37.30;35.34;39.89;;
70077;Laerm;57448;51.490;5.436;2022-08-19T00:24:51;39.19;36.43;43.09;;
70077;Laerm;57448;51.490;5.436;2022-08-19T00:24:57;39.86;37.11;45.54;;
70077;Laerm;57448;51.490;5.436;2022-08-19T00:25:02;40.18;37.37;43.27;;
70077;Laerm;57448;51.490;5.436;2022-08-19T00:25:08;37.68;35.61;40.18;;
70077;Laerm;57448;51.490;5.436;2022-08-19T00:25:14;36.87;35.04;38.71;;
70077;Laerm;57448;51.490;5.436;2022-08-19T00:25:19;39.46;36.31;44.07;;
70077;Laerm;57448;51.490;5.436;2022-08-19T00:25:25;37.23;35.44;41.67;;
70077;Laerm;57448;51.490;5.436;2022-08-19T00:25:30;38.98;35.23;42.31;;
70077;Laerm;57448;51.490;5.436;2022-08-19T00:25:36;37.68;35.97;39.38;;
70077;Laerm;57448;51.490;5.436;2022-08-19T00:25:41;37.87;36.39;40.06;;
70077;Laerm;57448;51.490;5.436;2022-08-19T00:25:46;37.91;36.22;40.31;;
70077;Laerm;57448;51.490;5.436;2022-08-19T00:25:52;37.70;36.25;39.66;;
70077;Laerm;57448;51.490;5.436;2022-08-19T00:25:57;37.70;36.08;40.17;;
70077;Laerm;57448;51.490;5.436;2022-08-19T00:26:03;40.97;38.19;44.37;;
70077;Laerm;57448;51.490;5.436;2022-08-19T00:26:09;40.56;37.70;49.86;;
70077;Laerm;57448;51.490;5.436;2022-08-19T00:26:15;39.76;37.05;42.45;;
70077;Laerm;57448;51.490;5.436;2022-08-19T00:26:21;38.72;36.72;40.95;;
70077;Laerm;57448;51.490;5.436;2022-08-19T00:26:27;39.63;36.73;42.45;;
70077;Laerm;57448;51.490;5.436;2022-08-19T00:26:33;41.10;38.78;44.39;;
70077;Laerm;57448;51.490;5.436;2022-08-19T00:26:38;42.40;39.59;44.76;;
70077;Laerm;57448;51.490;5.436;2022-08-19T00:26:44;40.07;38.07;43.15;;
70077;Laerm;57448;51.490;5.436;2022-08-19T00:26:50;39.25;37.02;42.83;;
70077;Laerm;57448;51.490;5.436;2022-08-19T00:26:56;38.00;35.49;40.98;;
70077;Laerm;57448;51.490;5.436;2022-08-19T00:27:02;38.29;35.20;42.87;;
70077;Laerm;57448;51.490;5.436;2022-08-19T00:27:07;39.53;36.19;42.46;;
70077;Laerm;57448;51.490;5.436;2022-08-19T00:27:13;37.54;35.71;39.18;;
70077;Laerm;57448;51.490;5.436;2022-08-19T00:27:18;37.85;35.25;41.12;;
70077;Laerm;57448;51.490;5.436;2022-08-19T00:27:24;38.90;36.90;40.73;;
70077;Laerm;57448;51.490;5.436;2022-08-19T00:27:30;39.83;37.49;42.63;;
70077;Laerm;57448;51.490;5.436;2022-08-19T00:27:35;38.67;36.04;42.55;;
70077;Laerm;57448;51.490;5.436;2022-08-19T00:27:41;38.48;35.73;40.90;;
70077;Laerm;57448;51.490;5.436;2022-08-19T00:27:46;39.59;37.17;41.62;;
70077;Laerm;57448;51.490;5.436;2022-08-19T00:27:52;37.39;35.34;41.00;;
70077;Laerm;57448;51.490;5.436;2022-08-19T00:27:58;38.12;36.05;48.27;;
70077;Laerm;57448;51.490;5.436;2022-08-19T00:28:04;36.62;34.35;39.00;;
70077;Laerm;57448;51.490;5.436;2022-08-19T00:28:09;37.36;34.37;39.97;;
70077;Laerm;57448;51.490;5.436;2022-08-19T00:28:15;39.64;37.00;42.64;;
70077;Laerm;57448;51.490;5.436;2022-08-19T00:28:20;37.76;35.76;40.50;;
70077;Laerm;57448;51.490;5.436;2022-08-19T00:28:26;36.37;34.93;37.89;;
70077;Laerm;57448;51.490;5.436;2022-08-19T00:28:32;36.98;34.52;39.24;;
70077;Laerm;57448;51.490;5.436;2022-08-19T00:28:37;36.75;34.65;39.01;;
70077;Laerm;57448;51.490;5.436;2022-08-19T00:28:43;37.78;35.42;41.04;;
70077;Laerm;57448;51.490;5.436;2022-08-19T00:28:48;38.02;36.56;39.53;;
70077;Laerm;57448;51.490;5.436;2022-08-19T00:28:54;38.89;36.44;43.32;;
70077;Laerm;57448;51.490;5.436;2022-08-19T00:28:59;40.42;36.60;44.48;;
70077;Laerm;57448;51.490;5.436;2022-08-19T00:29:06;37.31;34.84;39.49;;
70077;Laerm;57448;51.490;5.436;2022-08-19T00:29:13;38.00;35.94;40.08;;
70077;Laerm;57448;51.490;5.436;2022-08-19T00:29:20;39.31;36.22;45.07;;
70077;Laerm;57448;51.490;5.436;2022-08-19T00:29:25;37.90;36.28;39.82;;
70077;Laerm;57448;51.490;5.436;2022-08-19T00:29:31;38.15;35.90;41.09;;
70077;Laerm;57448;51.490;5.436;2022-08-19T00:29:36;39.79;36.70;43.81;;
70077;Laerm;57448;51.490;5.436;2022-08-19T00:29:42;38.67;36.58;40.84;;
70077;Laerm;57448;51.490;5.436;2022-08-19T00:29:47;39.49;36.67;41.39;;
70077;Laerm;57448;51.490;5.436;2022-08-19T00:29:53;39.28;37.15;41.52;;
70077;Laerm;57448;51.490;5.436;2022-08-19T00:29:59;38.76;36.91;40.75;;
70077;Laerm;57448;51.490;5.436;2022-08-19T00:30:06;37.13;34.74;39.78;;
70077;Laerm;57448;51.490;5.436;2022-08-19T00:30:12;34.87;32.82;36.94;;
70077;Laerm;57448;51.490;5.436;2022-08-19T00:30:18;35.90;33.15;39.28;;
70077;Laerm;57448;51.490;5.436;2022-08-19T00:30:24;39.01;34.88;43.22;;
70077;Laerm;57448;51.490;5.436;2022-08-19T00:30:30;37.14;34.57;40.84;;
70077;Laerm;57448;51.490;5.436;2022-08-19T00:30:35;37.63;35.15;40.78;;
70077;Laerm;57448;51.490;5.436;2022-08-19T00:30:40;38.60;35.18;41.39;;
70077;Laerm;57448;51.490;5.436;2022-08-19T00:30:46;36.14;34.71;37.72;;
70077;Laerm;57448;51.490;5.436;2022-08-19T00:30:51;35.51;34.10;38.12;;
70077;Laerm;57448;51.490;5.436;2022-08-19T00:30:58;35.93;33.94;38.20;;
70077;Laerm;57448;51.490;5.436;2022-08-19T00:31:03;36.39;34.24;38.82;;
70077;Laerm;57448;51.490;5.436;2022-08-19T00:31:09;36.98;34.64;38.99;;
70077;Laerm;57448;51.490;5.436;2022-08-19T00:31:15;37.16;35.58;39.14;;
70077;Laerm;57448;51.490;5.436;2022-08-19T00:31:21;37.67;35.94;39.29;;
70077;Laerm;57448;51.490;5.436;2022-08-19T00:31:26;37.32;35.27;39.11;;
70077;Laerm;57448;51.490;5.436;2022-08-19T00:31:33;36.39;34.52;38.49;;
70077;Laerm;57448;51.490;5.436;2022-08-19T00:31:38;35.75;33.94;37.36;;
70077;Laerm;57448;51.490;5.436;2022-08-19T00:31:45;35.24;33.24;37.38;;
70077;Laerm;57448;51.490;5.436;2022-08-19T00:31:52;34.96;32.67;37.07;;
70077;Laerm;57448;51.490;5.436;2022-08-19T00:32:00;34.68;32.72;36.36;;
70077;Laerm;57448;51.490;5.436;2022-08-19T00:32:06;34.60;33.24;36.30;;
70077;Laerm;57448;51.490;5.436;2022-08-19T00:32:11;34.40;32.71;36.59;;
70077;Laerm;57448;51.490;5.436;2022-08-19T00:32:17;34.02;32.71;35.37;;
70077;Laerm;57448;51.490;5.436;2022-08-19T00:32:22;34.28;32.79;35.57;;
70077;Laerm;57448;51.490;5.436;2022-08-19T00:32:27;34.98;33.02;37.94;;
70077;Laerm;57448;51.490;5.436;2022-08-19T00:32:33;35.78;33.94;38.39;;
70077;Laerm;57448;51.490;5.436;2022-08-19T00:32:39;36.20;34.64;38.72;;
70077;Laerm;57448;51.490;5.436;2022-08-19T00:32:44;36.35;34.46;39.12;;
70077;Laerm;57448;51.490;5.436;2022-08-19T00:32:50;36.96;34.99;39.90;;